sensor_id;sensor_type;location;lat;lon;timestamp;P1;durP1;ratioP1;P2;durP2;ratioP2
15256;SDS011;7731;50.720;6.912;2024-03-23T00:52:51;19.63;;;14.47;;
15256;SDS011;7731;50.720;6.912;2024-03-23T00:55:18;20.13;;;11.67;;
15256;SDS011;7731;50.720;6.912;2024-03-23T00:57:45;20.13;;;10.27;;
15256;SDS011;7731;50.720;6.912;2024-03-23T01:00:12;20.10;;;11.63;;
15256;SDS011;7731;50.720;6.912;2024-03-23T01:02:40;19.23;;;9.90;;
15256;SDS011;7731;50.720;6.912;2024-03-23T01:05:08;17.50;;;11.13;;
15256;SDS011;7731;50.720;6.912;2024-03-23T01:07:34;16.60;;;10.83;;
15256;SDS011;7731;50.720;6.912;2024-03-23T01:10:07;19.03;;;11.77;;
15256;SDS011;7731;50.720;6.912;2024-03-23T01:12:35;21.33;;;12.20;;
15256;SDS011;7731;50.720;6.912;2024-03-23T01:15:01;21.03;;;12.73;;
15256;SDS011;7731;50.720;6.912;2024-03-23T01:17:28;20.73;;;12.33;;
15256;SDS011;7731;50.720;6.912;2024-03-23T01:19:55;23.47;;;15.40;;
15256;SDS011;7731;50.720;6.912;2024-03-23T01:22:21;23.33;;;14.47;;
15256;SDS011;7731;50.720;6.912;2024-03-23T01:24:48;21.90;;;14.57;;
15256;SDS011;7731;50.720;6.912;2024-03-23T01:27:19;24.30;;;15.03;;
15256;SDS011;7731;50.720;6.912;2024-03-23T01:29:45;23.93;;;14.13;;
15256;SDS011;7731;50.720;6.912;2024-03-23T01:32:12;19.80;;;14.37;;
15256;SDS011;7731;50.720;6.912;2024-03-23T01:34:38;20.43;;;14.27;;
15256;SDS011;7731;50.720;6.912;2024-03-23T01:37:05;23.40;;;14.30;;
15256;SDS011;7731;50.720;6.912;2024-03-23T01:39:31;23.83;;;14.87;;
15256;SDS011;7731;50.720;6.912;2024-03-23T01:41:58;22.60;;;15.43;;
15256;SDS011;7731;50.720;6.912;2024-03-23T01:44:27;25.23;;;15.87;;
15256;SDS011;7731;50.720;6.912;2024-03-23T01:46:54;25.83;;;15.53;;
15256;SDS011;7731;50.720;6.912;2024-03-23T01:49:21;24.67;;;14.87;;
15256;SDS011;7731;50.720;6.912;2024-03-23T01:51:47;24.97;;;16.10;;
15256;SDS011;7731;50.720;6.912;2024-03-23T01:54:14;20.97;;;14.90;;
15256;SDS011;7731;50.720;6.912;2024-03-23T01:56:41;22.13;;;15.53;;
15256;SDS011;7731;50.720;6.912;2024-03-23T01:59:08;24.00;;;14.93;;
15256;SDS011;7731;50.720;6.912;2024-03-23T02:01:37;26.50;;;15.37;;
15256;SDS011;7731;50.720;6.912;2024-03-23T02:04:04;20.10;;;15.10;;
15256;SDS011;7731;50.720;6.912;2024-03-23T02:06:32;19.00;;;14.57;;
15256;SDS011;7731;50.720;6.912;2024-03-23T02:08:59;20.57;;;14.50;;
15256;SDS011;7731;50.720;6.912;2024-03-23T02:11:29;22.40;;;14.87;;
15256;SDS011;7731;50.720;6.912;2024-03-23T02:13:55;16.27;;;11.23;;
15256;SDS011;7731;50.720;6.912;2024-03-23T02:16:22;8.60;;;6.50;;
15256;SDS011;7731;50.720;6.912;2024-03-23T02:18:51;8.77;;;5.93;;
15256;SDS011;7731;50.720;6.912;2024-03-23T02:21:18;7.30;;;5.30;;
15256;SDS011;7731;50.720;6.912;2024-03-23T02:23:48;9.03;;;5.80;;
15256;SDS011;7731;50.720;6.912;2024-03-23T02:26:15;9.20;;;6.07;;
15256;SDS011;7731;50.720;6.912;2024-03-23T02:28:41;8.50;;;5.50;;
15256;SDS011;7731;50.720;6.912;2024-03-23T02:31:10;7.30;;;5.17;;
15256;SDS011;7731;50.720;6.912;2024-03-23T02:33:37;9.43;;;5.30;;
15256;SDS011;7731;50.720;6.912;2024-03-23T02:36:04;7.47;;;5.20;;
15256;SDS011;7731;50.720;6.912;2024-03-23T02:38:31;10.13;;;5.70;;
15256;SDS011;7731;50.720;6.912;2024-03-23T02:41:03;7.67;;;5.63;;
15256;SDS011;7731;50.720;6.912;2024-03-23T02:43:30;8.13;;;5.00;;
15256;SDS011;7731;50.720;6.912;2024-03-23T02:45:57;7.40;;;4.70;;
15256;SDS011;7731;50.720;6.912;2024-03-23T02:48:24;6.83;;;4.43;;
15256;SDS011;7731;50.720;6.912;2024-03-23T02:50:50;11.33;;;4.87;;
15256;SDS011;7731;50.720;6.912;2024-03-23T02:53:17;6.33;;;4.33;;
15256;SDS011;7731;50.720;6.912;2024-03-23T02:55:44;7.23;;;5.03;;
15256;SDS011;7731;50.720;6.912;2024-03-23T02:58:15;5.23;;;3.70;;
15256;SDS011;7731;50.720;6.912;2024-03-23T03:00:42;5.33;;;2.60;;
15256;SDS011;7731;50.720;6.912;2024-03-23T03:03:08;5.37;;;2.70;;
15256;SDS011;7731;50.720;6.912;2024-03-23T03:05:35;4.70;;;2.50;;
15256;SDS011;7731;50.720;6.912;2024-03-23T03:08:01;6.23;;;2.40;;
15256;SDS011;7731;50.720;6.912;2024-03-23T03:10:28;7.13;;;2.80;;
15256;SDS011;7731;50.720;6.912;2024-03-23T03:12:55;7.77;;;3.07;;
15256;SDS011;7731;50.720;6.912;2024-03-23T03:15:24;8.80;;;3.30;;
15256;SDS011;7731;50.720;6.912;2024-03-23T03:17:50;12.33;;;3.17;;
15256;SDS011;7731;50.720;6.912;2024-03-23T03:20:17;8.60;;;2.80;;
15256;SDS011;7731;50.720;6.912;2024-03-23T03:22:44;5.70;;;2.80;;
15256;SDS011;7731;50.720;6.912;2024-03-23T03:25:10;7.07;;;3.03;;
15256;SDS011;7731;50.720;6.912;2024-03-23T03:27:37;6.57;;;2.97;;
15256;SDS011;7731;50.720;6.912;2024-03-23T03:30:04;7.90;;;3.07;;
15256;SDS011;7731;50.720;6.912;2024-03-23T03:32:34;7.30;;;3.20;;
15256;SDS011;7731;50.720;6.912;2024-03-23T03:35:01;9.30;;;3.43;;
15256;SDS011;7731;50.720;6.912;2024-03-23T03:37:28;8.80;;;3.53;;
15256;SDS011;7731;50.720;6.912;2024-03-23T03:39:54;6.93;;;3.67;;
15256;SDS011;7731;50.720;6.912;2024-03-23T03:42:21;8.67;;;3.73;;
15256;SDS011;7731;50.720;6.912;2024-03-23T03:44:47;9.03;;;3.60;;
15256;SDS011;7731;50.720;6.912;2024-03-23T03:47:14;9.57;;;3.50;;
15256;SDS011;7731;50.720;6.912;2024-03-23T03:49:43;9.00;;;3.73;;
15256;SDS011;7731;50.720;6.912;2024-03-23T03:52:09;6.73;;;3.23;;
15256;SDS011;7731;50.720;6.912;2024-03-23T03:54:36;10.20;;;3.77;;
15256;SDS011;7731;50.720;6.912;2024-03-23T03:57:03;6.77;;;3.33;;
15256;SDS011;7731;50.720;6.912;2024-03-23T03:59:30;11.20;;;4.10;;
15256;SDS011;7731;50.720;6.912;2024-03-23T04:01:57;10.07;;;3.90;;
15256;SDS011;7731;50.720;6.912;2024-03-23T04:04:25;10.07;;;3.30;;
15256;SDS011;7731;50.720;6.912;2024-03-23T04:07:00;11.10;;;3.63;;
15256;SDS011;7731;50.720;6.912;2024-03-23T04:09:27;8.07;;;2.90;;
15256;SDS011;7731;50.720;6.912;2024-03-23T04:11:54;7.97;;;2.63;;
15256;SDS011;7731;50.720;6.912;2024-03-23T04:14:20;8.70;;;2.90;;
15256;SDS011;7731;50.720;6.912;2024-03-23T04:16:47;9.27;;;2.73;;
15256;SDS011;7731;50.720;6.912;2024-03-23T04:19:13;7.97;;;2.33;;
15256;SDS011;7731;50.720;6.912;2024-03-23T04:21:40;7.70;;;2.60;;
15256;SDS011;7731;50.720;6.912;2024-03-23T04:24:09;6.93;;;2.83;;
15256;SDS011;7731;50.720;6.912;2024-03-23T04:26:40;9.47;;;3.50;;
15256;SDS011;7731;50.720;6.912;2024-03-23T04:29:07;10.30;;;4.73;;
15256;SDS011;7731;50.720;6.912;2024-03-23T04:31:33;13.70;;;7.37;;
15256;SDS011;7731;50.720;6.912;2024-03-23T04:34:00;11.33;;;6.70;;
15256;SDS011;7731;50.720;6.912;2024-03-23T04:36:27;11.37;;;4.80;;
15256;SDS011;7731;50.720;6.912;2024-03-23T04:38:53;15.87;;;5.87;;
15256;SDS011;7731;50.720;6.912;2024-03-23T04:41:22;11.80;;;4.97;;
15256;SDS011;7731;50.720;6.912;2024-03-23T04:43:49;10.70;;;3.73;;
15256;SDS011;7731;50.720;6.912;2024-03-23T04:46:16;7.60;;;3.20;;
15256;SDS011;7731;50.720;6.912;2024-03-23T04:48:42;9.37;;;2.93;;
15256;SDS011;7731;50.720;6.912;2024-03-23T04:51:09;9.13;;;2.63;;
15256;SDS011;7731;50.720;6.912;2024-03-23T04:53:36;9.63;;;2.83;;
15256;SDS011;7731;50.720;6.912;2024-03-23T04:56:04;10.47;;;2.67;;
15256;SDS011;7731;50.720;6.912;2024-03-23T04:58:33;8.10;;;2.60;;
15256;SDS011;7731;50.720;6.912;2024-03-23T05:00:59;7.63;;;2.70;;
15256;SDS011;7731;50.720;6.912;2024-03-23T05:03:26;7.60;;;2.60;;
15256;SDS011;7731;50.720;6.912;2024-03-23T05:05:53;8.23;;;2.73;;
15256;SDS011;7731;50.720;6.912;2024-03-23T05:08:19;7.63;;;2.43;;
15256;SDS011;7731;50.720;6.912;2024-03-23T05:10:46;12.70;;;3.03;;
15256;SDS011;7731;50.720;6.912;2024-03-23T05:13:12;5.90;;;2.50;;
15256;SDS011;7731;50.720;6.912;2024-03-23T05:15:41;7.87;;;2.80;;
15256;SDS011;7731;50.720;6.912;2024-03-23T05:18:08;9.80;;;3.20;;
15256;SDS011;7731;50.720;6.912;2024-03-23T05:20:34;10.27;;;3.00;;
15256;SDS011;7731;50.720;6.912;2024-03-23T05:23:01;10.27;;;3.10;;
15256;SDS011;7731;50.720;6.912;2024-03-23T05:25:28;8.00;;;3.10;;
15256;SDS011;7731;50.720;6.912;2024-03-23T05:27:54;11.93;;;3.20;;
15256;SDS011;7731;50.720;6.912;2024-03-23T05:30:21;13.07;;;2.87;;
15256;SDS011;7731;50.720;6.912;2024-03-23T05:32:50;10.67;;;2.90;;
15256;SDS011;7731;50.720;6.912;2024-03-23T05:35:16;11.23;;;3.37;;
15256;SDS011;7731;50.720;6.912;2024-03-23T05:37:43;11.03;;;3.53;;
15256;SDS011;7731;50.720;6.912;2024-03-23T05:40:10;10.77;;;3.20;;
15256;SDS011;7731;50.720;6.912;2024-03-23T05:42:39;12.33;;;3.37;;
15256;SDS011;7731;50.720;6.912;2024-03-23T05:45:06;12.70;;;3.30;;
15256;SDS011;7731;50.720;6.912;2024-03-23T05:47:34;7.93;;;3.50;;
15256;SDS011;7731;50.720;6.912;2024-03-23T05:50:03;8.73;;;3.40;;
15256;SDS011;7731;50.720;6.912;2024-03-23T05:52:34;10.87;;;3.57;;
15256;SDS011;7731;50.720;6.912;2024-03-23T05:55:00;11.53;;;3.63;;
15256;SDS011;7731;50.720;6.912;2024-03-23T05:57:27;13.93;;;3.70;;
15256;SDS011;7731;50.720;6.912;2024-03-23T05:59:55;11.87;;;3.43;;
15256;SDS011;7731;50.720;6.912;2024-03-23T06:02:22;10.40;;;3.30;;
15256;SDS011;7731;50.720;6.912;2024-03-23T06:04:49;9.10;;;3.60;;
15256;SDS011;7731;50.720;6.912;2024-03-23T06:07:18;8.00;;;3.20;;
15256;SDS011;7731;50.720;6.912;2024-03-23T06:09:45;9.53;;;3.60;;
15256;SDS011;7731;50.720;6.912;2024-03-23T06:12:11;11.53;;;3.80;;
15256;SDS011;7731;50.720;6.912;2024-03-23T06:14:38;10.37;;;3.43;;
15256;SDS011;7731;50.720;6.912;2024-03-23T06:17:04;8.13;;;3.73;;
15256;SDS011;7731;50.720;6.912;2024-03-23T06:19:31;8.70;;;3.27;;
15256;SDS011;7731;50.720;6.912;2024-03-23T06:21:58;10.63;;;3.77;;
15256;SDS011;7731;50.720;6.912;2024-03-23T06:24:27;10.20;;;3.53;;
15256;SDS011;7731;50.720;6.912;2024-03-23T06:26:53;6.17;;;3.10;;
15256;SDS011;7731;50.720;6.912;2024-03-23T06:29:20;10.10;;;3.03;;
15256;SDS011;7731;50.720;6.912;2024-03-23T06:31:52;11.33;;;4.67;;
15256;SDS011;7731;50.720;6.912;2024-03-23T06:34:19;13.57;;;5.10;;
15256;SDS011;7731;50.720;6.912;2024-03-23T06:36:47;12.97;;;5.90;;
15256;SDS011;7731;50.720;6.912;2024-03-23T06:39:13;13.73;;;6.20;;
15256;SDS011;7731;50.720;6.912;2024-03-23T06:41:50;16.37;;;7.00;;
15256;SDS011;7731;50.720;6.912;2024-03-23T06:44:19;14.07;;;5.93;;
15256;SDS011;7731;50.720;6.912;2024-03-23T06:46:46;10.70;;;3.80;;
15256;SDS011;7731;50.720;6.912;2024-03-23T06:49:13;5.97;;;3.63;;
15256;SDS011;7731;50.720;6.912;2024-03-23T06:51:40;8.93;;;3.40;;
15256;SDS011;7731;50.720;6.912;2024-03-23T06:54:07;10.43;;;5.77;;
15256;SDS011;7731;50.720;6.912;2024-03-23T06:56:34;12.37;;;5.03;;
15256;SDS011;7731;50.720;6.912;2024-03-23T06:59:03;10.37;;;4.47;;
15256;SDS011;7731;50.720;6.912;2024-03-23T07:01:30;9.87;;;4.03;;
15256;SDS011;7731;50.720;6.912;2024-03-23T07:03:57;11.07;;;3.83;;
15256;SDS011;7731;50.720;6.912;2024-03-23T07:06:23;12.13;;;3.83;;
15256;SDS011;7731;50.720;6.912;2024-03-23T07:08:50;11.53;;;3.63;;
15256;SDS011;7731;50.720;6.912;2024-03-23T07:11:18;7.50;;;3.83;;
15256;SDS011;7731;50.720;6.912;2024-03-23T07:13:45;8.30;;;3.80;;
15256;SDS011;7731;50.720;6.912;2024-03-23T07:16:17;9.67;;;3.90;;
15256;SDS011;7731;50.720;6.912;2024-03-23T07:18:44;12.53;;;4.80;;
15256;SDS011;7731;50.720;6.912;2024-03-23T07:21:10;8.97;;;4.13;;
15256;SDS011;7731;50.720;6.912;2024-03-23T07:23:37;9.63;;;4.27;;
15256;SDS011;7731;50.720;6.912;2024-03-23T07:26:07;11.97;;;4.70;;
15256;SDS011;7731;50.720;6.912;2024-03-23T07:28:33;10.20;;;4.43;;
15256;SDS011;7731;50.720;6.912;2024-03-23T07:31:01;10.13;;;5.20;;
15256;SDS011;7731;50.720;6.912;2024-03-23T07:33:34;12.65;;;4.97;;
15256;SDS011;7731;50.720;6.912;2024-03-23T07:36:03;11.05;;;4.30;;
15256;SDS011;7731;50.720;6.912;2024-03-23T07:38:31;9.35;;;4.20;;
15256;SDS011;7731;50.720;6.912;2024-03-23T07:41:04;8.48;;;3.95;;
15256;SDS011;7731;50.720;6.912;2024-03-23T07:43:31;8.13;;;3.47;;
15256;SDS011;7731;50.720;6.912;2024-03-23T07:45:58;9.38;;;3.35;;
15256;SDS011;7731;50.720;6.912;2024-03-23T07:48:25;6.95;;;3.28;;
15256;SDS011;7731;50.720;6.912;2024-03-23T07:51:03;7.68;;;3.92;;
15256;SDS011;7731;50.720;6.912;2024-03-23T07:53:32;9.88;;;3.95;;
15256;SDS011;7731;50.720;6.912;2024-03-23T07:56:00;8.20;;;3.75;;
15256;SDS011;7731;50.720;6.912;2024-03-23T07:58:29;9.13;;;4.28;;
15256;SDS011;7731;50.720;6.912;2024-03-23T08:00:56;5.13;;;1.70;;
15256;SDS011;7731;50.720;6.912;2024-03-23T08:03:31;4.75;;;1.60;;
15256;SDS011;7731;50.720;6.912;2024-03-23T08:05:57;4.18;;;1.33;;
15256;SDS011;7731;50.720;6.912;2024-03-23T08:08:34;3.83;;;1.40;;
15256;SDS011;7731;50.720;6.912;2024-03-23T08:11:00;3.97;;;1.60;;
15256;SDS011;7731;50.720;6.912;2024-03-23T08:13:27;7.73;;;1.67;;
15256;SDS011;7731;50.720;6.912;2024-03-23T08:15:56;4.13;;;1.23;;
15256;SDS011;7731;50.720;6.912;2024-03-23T08:18:23;3.77;;;1.30;;
15256;SDS011;7731;50.720;6.912;2024-03-23T08:20:56;5.60;;;1.50;;
15256;SDS011;7731;50.720;6.912;2024-03-23T08:23:24;3.15;;;1.05;;
15256;SDS011;7731;50.720;6.912;2024-03-23T08:25:54;2.22;;;1.00;;
15256;SDS011;7731;50.720;6.912;2024-03-23T08:28:24;2.75;;;1.30;;
15256;SDS011;7731;50.720;6.912;2024-03-23T08:30:51;3.92;;;1.20;;
15256;SDS011;7731;50.720;6.912;2024-03-23T08:33:18;3.85;;;1.42;;
15256;SDS011;7731;50.720;6.912;2024-03-23T08:35:52;6.32;;;1.88;;
15256;SDS011;7731;50.720;6.912;2024-03-23T08:38:20;5.45;;;2.53;;
15256;SDS011;7731;50.720;6.912;2024-03-23T08:40:47;6.63;;;2.45;;
15256;SDS011;7731;50.720;6.912;2024-03-23T08:43:16;6.88;;;3.10;;
15256;SDS011;7731;50.720;6.912;2024-03-23T08:45:42;5.70;;;3.17;;
15256;SDS011;7731;50.720;6.912;2024-03-23T08:48:10;7.63;;;3.08;;
15256;SDS011;7731;50.720;6.912;2024-03-23T08:50:37;7.70;;;4.20;;
15256;SDS011;7731;50.720;6.912;2024-03-23T08:53:03;11.00;;;4.50;;
15256;SDS011;7731;50.720;6.912;2024-03-23T08:55:31;11.02;;;4.50;;
15256;SDS011;7731;50.720;6.912;2024-03-23T08:57:57;7.88;;;4.45;;
15256;SDS011;7731;50.720;6.912;2024-03-23T09:00:27;7.90;;;4.38;;
15256;SDS011;7731;50.720;6.912;2024-03-23T09:02:53;8.68;;;4.45;;
15256;SDS011;7731;50.720;6.912;2024-03-23T09:05:20;6.38;;;3.85;;
15256;SDS011;7731;50.720;6.912;2024-03-23T09:07:46;8.27;;;4.03;;
15256;SDS011;7731;50.720;6.912;2024-03-23T09:10:13;6.22;;;3.78;;
15256;SDS011;7731;50.720;6.912;2024-03-23T09:12:39;6.65;;;3.80;;
15256;SDS011;7731;50.720;6.912;2024-03-23T09:15:06;9.00;;;3.65;;
15256;SDS011;7731;50.720;6.912;2024-03-23T09:17:36;8.77;;;2.92;;
15256;SDS011;7731;50.720;6.912;2024-03-23T09:20:02;9.90;;;3.15;;
15256;SDS011;7731;50.720;6.912;2024-03-23T09:22:30;14.38;;;3.30;;
15256;SDS011;7731;50.720;6.912;2024-03-23T09:24:56;7.38;;;3.40;;
15256;SDS011;7731;50.720;6.912;2024-03-23T09:27:23;6.47;;;2.60;;
15256;SDS011;7731;50.720;6.912;2024-03-23T09:29:49;7.35;;;2.50;;
15256;SDS011;7731;50.720;6.912;2024-03-23T09:32:16;8.60;;;3.05;;
15256;SDS011;7731;50.720;6.912;2024-03-23T09:34:47;6.80;;;2.38;;
15256;SDS011;7731;50.720;6.912;2024-03-23T09:37:14;10.02;;;2.78;;
15256;SDS011;7731;50.720;6.912;2024-03-23T09:39:41;6.03;;;2.40;;
15256;SDS011;7731;50.720;6.912;2024-03-23T09:42:08;3.75;;;2.10;;
15256;SDS011;7731;50.720;6.912;2024-03-23T09:44:35;6.63;;;2.22;;
15256;SDS011;7731;50.720;6.912;2024-03-23T09:47:02;6.63;;;2.10;;
15256;SDS011;7731;50.720;6.912;2024-03-23T09:49:29;4.97;;;2.15;;
15256;SDS011;7731;50.720;6.912;2024-03-23T09:51:59;5.50;;;2.17;;
15256;SDS011;7731;50.720;6.912;2024-03-23T09:54:25;6.88;;;2.65;;
15256;SDS011;7731;50.720;6.912;2024-03-23T09:56:52;6.35;;;1.90;;
15256;SDS011;7731;50.720;6.912;2024-03-23T09:59:18;5.53;;;2.17;;
15256;SDS011;7731;50.720;6.912;2024-03-23T10:01:45;5.15;;;2.50;;
15256;SDS011;7731;50.720;6.912;2024-03-23T10:07:13;8.55;;;2.78;;
15256;SDS011;7731;50.720;6.912;2024-03-23T10:09:41;8.00;;;3.13;;
15256;SDS011;7731;50.720;6.912;2024-03-23T10:12:08;5.78;;;2.40;;
15256;SDS011;7731;50.720;6.912;2024-03-23T10:14:36;6.45;;;2.80;;
15256;SDS011;7731;50.720;6.912;2024-03-23T10:17:13;5.97;;;2.42;;
15256;SDS011;7731;50.720;6.912;2024-03-23T10:19:43;3.35;;;1.70;;
15256;SDS011;7731;50.720;6.912;2024-03-23T10:22:17;5.55;;;2.00;;
15256;SDS011;7731;50.720;6.912;2024-03-23T10:24:45;4.03;;;1.70;;
15256;SDS011;7731;50.720;6.912;2024-03-23T10:27:14;2.83;;;1.30;;
15256;SDS011;7731;50.720;6.912;2024-03-23T10:29:43;5.13;;;2.33;;
15256;SDS011;7731;50.720;6.912;2024-03-23T10:32:10;2.83;;;2.50;;
15256;SDS011;7731;50.720;6.912;2024-03-23T10:34:38;4.23;;;1.20;;
15256;SDS011;7731;50.720;6.912;2024-03-23T10:37:05;2.77;;;1.27;;
15256;SDS011;7731;50.720;6.912;2024-03-23T10:39:37;2.30;;;0.70;;
15256;SDS011;7731;50.720;6.912;2024-03-23T10:42:06;2.67;;;0.93;;
15256;SDS011;7731;50.720;6.912;2024-03-23T10:44:34;2.77;;;1.33;;
15256;SDS011;7731;50.720;6.912;2024-03-23T10:47:02;1.50;;;0.93;;
15256;SDS011;7731;50.720;6.912;2024-03-23T10:49:30;2.73;;;0.80;;
15256;SDS011;7731;50.720;6.912;2024-03-23T10:51:59;1.10;;;0.90;;
15256;SDS011;7731;50.720;6.912;2024-03-23T10:54:27;3.53;;;0.80;;
15256;SDS011;7731;50.720;6.912;2024-03-23T10:57:01;2.00;;;0.67;;
15256;SDS011;7731;50.720;6.912;2024-03-23T10:59:34;1.83;;;0.77;;
15256;SDS011;7731;50.720;6.912;2024-03-23T11:02:03;1.90;;;0.80;;
15256;SDS011;7731;50.720;6.912;2024-03-23T11:04:30;4.18;;;1.48;;
15256;SDS011;7731;50.720;6.912;2024-03-23T11:07:02;4.65;;;1.92;;
15256;SDS011;7731;50.720;6.912;2024-03-23T11:09:48;4.25;;;2.47;;
15256;SDS011;7731;50.720;6.912;2024-03-23T11:12:31;7.30;;;2.05;;
15256;SDS011;7731;50.720;6.912;2024-03-23T11:14:58;4.05;;;1.95;;
15256;SDS011;7731;50.720;6.912;2024-03-23T11:17:28;4.55;;;1.67;;
15256;SDS011;7731;50.720;6.912;2024-03-23T11:19:55;2.63;;;1.52;;
15256;SDS011;7731;50.720;6.912;2024-03-23T11:22:39;4.22;;;1.20;;
15256;SDS011;7731;50.720;6.912;2024-03-23T11:25:15;3.03;;;1.40;;
15256;SDS011;7731;50.720;6.912;2024-03-23T11:27:48;2.38;;;1.10;;
15256;SDS011;7731;50.720;6.912;2024-03-23T11:30:17;3.38;;;1.50;;
15256;SDS011;7731;50.720;6.912;2024-03-23T11:32:47;6.45;;;2.10;;
15256;SDS011;7731;50.720;6.912;2024-03-23T11:35:25;4.20;;;2.00;;
15256;SDS011;7731;50.720;6.912;2024-03-23T11:38:03;4.53;;;2.70;;
15256;SDS011;7731;50.720;6.912;2024-03-23T11:40:36;4.68;;;2.35;;
15256;SDS011;7731;50.720;6.912;2024-03-23T11:43:08;10.43;;;3.05;;
15256;SDS011;7731;50.720;6.912;2024-03-23T11:45:37;7.60;;;3.45;;
15256;SDS011;7731;50.720;6.912;2024-03-23T11:48:06;7.57;;;3.55;;
15256;SDS011;7731;50.720;6.912;2024-03-23T11:50:35;6.82;;;3.80;;
15256;SDS011;7731;50.720;6.912;2024-03-23T11:53:08;9.48;;;3.80;;
15256;SDS011;7731;50.720;6.912;2024-03-23T11:55:42;6.63;;;3.72;;
15256;SDS011;7731;50.720;6.912;2024-03-23T11:58:16;4.85;;;3.13;;
15256;SDS011;7731;50.720;6.912;2024-03-23T12:00:55;4.43;;;2.85;;
15256;SDS011;7731;50.720;6.912;2024-03-23T12:03:24;4.35;;;2.90;;
15256;SDS011;7731;50.720;6.912;2024-03-23T12:05:53;6.15;;;3.50;;
15256;SDS011;7731;50.720;6.912;2024-03-23T12:08:21;5.93;;;3.38;;
15256;SDS011;7731;50.720;6.912;2024-03-23T12:10:50;7.32;;;3.63;;
15256;SDS011;7731;50.720;6.912;2024-03-23T12:13:22;7.35;;;4.03;;
15256;SDS011;7731;50.720;6.912;2024-03-23T12:15:50;7.60;;;4.25;;
15256;SDS011;7731;50.720;6.912;2024-03-23T12:18:17;6.90;;;3.55;;
15256;SDS011;7731;50.720;6.912;2024-03-23T12:20:49;5.90;;;3.50;;
15256;SDS011;7731;50.720;6.912;2024-03-23T12:23:16;5.95;;;3.03;;
15256;SDS011;7731;50.720;6.912;2024-03-23T12:25:42;3.35;;;2.67;;
15256;SDS011;7731;50.720;6.912;2024-03-23T12:28:09;5.97;;;2.72;;
15256;SDS011;7731;50.720;6.912;2024-03-23T12:30:38;5.82;;;2.50;;
15256;SDS011;7731;50.720;6.912;2024-03-23T12:33:05;5.43;;;2.80;;
15256;SDS011;7731;50.720;6.912;2024-03-23T12:35:32;3.95;;;2.80;;
15256;SDS011;7731;50.720;6.912;2024-03-23T12:37:59;4.30;;;2.78;;
15256;SDS011;7731;50.720;6.912;2024-03-23T12:40:26;3.72;;;2.53;;
15256;SDS011;7731;50.720;6.912;2024-03-23T12:42:53;7.55;;;2.70;;
15256;SDS011;7731;50.720;6.912;2024-03-23T12:45:21;3.45;;;1.60;;
15256;SDS011;7731;50.720;6.912;2024-03-23T12:47:51;2.97;;;1.25;;
15256;SDS011;7731;50.720;6.912;2024-03-23T12:50:18;2.58;;;1.10;;
15256;SDS011;7731;50.720;6.912;2024-03-23T12:52:44;5.30;;;1.25;;
15256;SDS011;7731;50.720;6.912;2024-03-23T12:55:11;4.05;;;1.55;;
15256;SDS011;7731;50.720;6.912;2024-03-23T12:57:38;2.58;;;1.20;;
15256;SDS011;7731;50.720;6.912;2024-03-23T13:00:05;3.15;;;1.63;;
15256;SDS011;7731;50.720;6.912;2024-03-23T13:02:34;6.38;;;1.70;;
15256;SDS011;7731;50.720;6.912;2024-03-23T13:05:04;1.85;;;1.40;;
15256;SDS011;7731;50.720;6.912;2024-03-23T13:07:32;2.25;;;1.20;;
15256;SDS011;7731;50.720;6.912;2024-03-23T13:09:59;3.50;;;1.20;;
15256;SDS011;7731;50.720;6.912;2024-03-23T13:12:25;2.20;;;1.20;;
15256;SDS011;7731;50.720;6.912;2024-03-23T13:14:52;2.93;;;1.20;;
15256;SDS011;7731;50.720;6.912;2024-03-23T13:17:18;12.17;;;7.63;;
15256;SDS011;7731;50.720;6.912;2024-03-23T13:19:45;22.58;;;15.77;;
15256;SDS011;7731;50.720;6.912;2024-03-23T13:22:14;9.07;;;4.78;;
15256;SDS011;7731;50.720;6.912;2024-03-23T13:24:44;3.42;;;2.40;;
15256;SDS011;7731;50.720;6.912;2024-03-23T13:27:10;5.47;;;1.75;;
15256;SDS011;7731;50.720;6.912;2024-03-23T13:29:38;4.38;;;1.65;;
15256;SDS011;7731;50.720;6.912;2024-03-23T13:32:08;3.55;;;2.40;;
15256;SDS011;7731;50.720;6.912;2024-03-23T13:34:34;4.10;;;2.63;;
15256;SDS011;7731;50.720;6.912;2024-03-23T13:37:01;3.90;;;3.33;;
15256;SDS011;7731;50.720;6.912;2024-03-23T13:39:30;3.58;;;1.95;;
15256;SDS011;7731;50.720;6.912;2024-03-23T13:41:56;6.82;;;1.50;;
15256;SDS011;7731;50.720;6.912;2024-03-23T13:44:23;6.47;;;1.70;;
15256;SDS011;7731;50.720;6.912;2024-03-23T13:46:49;3.03;;;1.75;;
15256;SDS011;7731;50.720;6.912;2024-03-23T13:49:26;3.42;;;1.90;;
15256;SDS011;7731;50.720;6.912;2024-03-23T13:51:54;3.75;;;1.90;;
15256;SDS011;7731;50.720;6.912;2024-03-23T13:54:21;3.88;;;2.10;;
15256;SDS011;7731;50.720;6.912;2024-03-23T13:56:51;4.57;;;1.88;;
15256;SDS011;7731;50.720;6.912;2024-03-23T13:59:20;4.78;;;2.15;;
15256;SDS011;7731;50.720;6.912;2024-03-23T14:01:46;2.92;;;2.03;;
15256;SDS011;7731;50.720;6.912;2024-03-23T14:04:13;5.13;;;2.17;;
15256;SDS011;7731;50.720;6.912;2024-03-23T14:06:44;4.85;;;2.40;;
15256;SDS011;7731;50.720;6.912;2024-03-23T14:09:11;5.78;;;2.25;;
15256;SDS011;7731;50.720;6.912;2024-03-23T14:11:37;5.82;;;2.20;;
15256;SDS011;7731;50.720;6.912;2024-03-23T14:14:12;6.15;;;2.00;;
15256;SDS011;7731;50.720;6.912;2024-03-23T14:16:38;4.40;;;2.03;;
15256;SDS011;7731;50.720;6.912;2024-03-23T14:19:05;5.27;;;2.20;;
15256;SDS011;7731;50.720;6.912;2024-03-23T14:21:31;5.53;;;2.20;;
15256;SDS011;7731;50.720;6.912;2024-03-23T14:23:59;3.70;;;1.63;;
15256;SDS011;7731;50.720;6.912;2024-03-23T14:26:26;4.30;;;1.50;;
15256;SDS011;7731;50.720;6.912;2024-03-23T14:28:53;1.93;;;0.90;;
15256;SDS011;7731;50.720;6.912;2024-03-23T14:31:22;2.10;;;1.30;;
15256;SDS011;7731;50.720;6.912;2024-03-23T14:33:49;3.63;;;1.80;;
15256;SDS011;7731;50.720;6.912;2024-03-23T14:36:16;3.63;;;1.30;;
15256;SDS011;7731;50.720;6.912;2024-03-23T14:38:46;3.70;;;1.43;;
15256;SDS011;7731;50.720;6.912;2024-03-23T14:41:13;3.07;;;1.77;;
15256;SDS011;7731;50.720;6.912;2024-03-23T14:43:41;9.47;;;2.33;;
15256;SDS011;7731;50.720;6.912;2024-03-23T14:46:08;4.07;;;2.20;;
15256;SDS011;7731;50.720;6.912;2024-03-23T14:48:42;4.63;;;1.73;;
15256;SDS011;7731;50.720;6.912;2024-03-23T14:51:10;5.13;;;1.90;;
15256;SDS011;7731;50.720;6.912;2024-03-23T14:53:38;4.37;;;1.40;;
15256;SDS011;7731;50.720;6.912;2024-03-23T14:56:06;1.73;;;1.00;;
15256;SDS011;7731;50.720;6.912;2024-03-23T14:58:33;3.73;;;1.10;;
15256;SDS011;7731;50.720;6.912;2024-03-23T15:01:00;1.50;;;0.73;;
15256;SDS011;7731;50.720;6.912;2024-03-23T15:03:27;1.77;;;0.80;;
15256;SDS011;7731;50.720;6.912;2024-03-23T15:05:59;2.40;;;1.40;;
15256;SDS011;7731;50.720;6.912;2024-03-23T15:08:26;1.87;;;0.83;;
15256;SDS011;7731;50.720;6.912;2024-03-23T15:10:53;2.23;;;0.80;;
15256;SDS011;7731;50.720;6.912;2024-03-23T15:13:21;2.10;;;0.90;;
15256;SDS011;7731;50.720;6.912;2024-03-23T15:15:48;3.37;;;0.70;;
15256;SDS011;7731;50.720;6.912;2024-03-23T15:18:15;3.23;;;0.80;;
15256;SDS011;7731;50.720;6.912;2024-03-23T15:20:41;1.90;;;0.80;;
15256;SDS011;7731;50.720;6.912;2024-03-23T15:23:22;2.27;;;0.67;;
15256;SDS011;7731;50.720;6.912;2024-03-23T15:25:53;1.97;;;0.90;;
15256;SDS011;7731;50.720;6.912;2024-03-23T15:28:21;1.47;;;0.70;;
15256;SDS011;7731;50.720;6.912;2024-03-23T15:30:48;1.80;;;0.60;;
15256;SDS011;7731;50.720;6.912;2024-03-23T15:33:15;0.93;;;0.60;;
15256;SDS011;7731;50.720;6.912;2024-03-23T15:35:41;1.33;;;0.60;;
15256;SDS011;7731;50.720;6.912;2024-03-23T15:38:08;1.33;;;0.70;;
15256;SDS011;7731;50.720;6.912;2024-03-23T15:40:37;1.17;;;0.70;;
15256;SDS011;7731;50.720;6.912;2024-03-23T15:43:04;1.73;;;0.83;;
15256;SDS011;7731;50.720;6.912;2024-03-23T15:45:30;1.53;;;0.80;;
15256;SDS011;7731;50.720;6.912;2024-03-23T15:47:57;2.10;;;1.30;;
15256;SDS011;7731;50.720;6.912;2024-03-23T15:50:24;2.00;;;0.80;;
15256;SDS011;7731;50.720;6.912;2024-03-23T15:52:50;2.83;;;1.13;;
15256;SDS011;7731;50.720;6.912;2024-03-23T15:55:17;2.57;;;1.10;;